Terminal Aerodrome Forecast
Issued by NWS Cleveland, OH

Home | Current Version | Previous Version | Graphics & Text | Print | Product List | Glossary On
Versions: 1 2 3 4 5 6 7 8 9 10 11 12 13 14 15 16 17 18 19 20
000
FTUS41 KCLE 211730
TAFMFD
TAF
KMFD 211730Z 2118/2218 10008KT P6SM SCT040 BKN120
     FM212300 10006KT 5SM -TSRA OVC025CB
      TEMPO 2123/2202 1 1/2SM -TSRA OVC012CB
     FM220300 12006KT 5SM -SHRA OVC025
     FM220800 17008KT 5SM BR OVC012=

USA.gov is the U.S. government's official web portal to all federal, state and local government web resources and services.